sensor_id;sensor_type;location;lat;lon;timestamp;P1;durP1;ratioP1;P2;durP2;ratioP2
41629;SDS011;27322;49.488;8.480;2022-07-24T00:01:28;6.00;;;3.63;;
41629;SDS011;27322;49.488;8.480;2022-07-24T00:03:53;8.35;;;3.95;;
41629;SDS011;27322;49.488;8.480;2022-07-24T00:06:19;6.35;;;3.90;;
41629;SDS011;27322;49.488;8.480;2022-07-24T00:08:45;5.40;;;3.78;;
41629;SDS011;27322;49.488;8.480;2022-07-24T00:11:10;6.00;;;3.78;;
41629;SDS011;27322;49.488;8.480;2022-07-24T00:13:36;5.65;;;3.42;;
41629;SDS011;27322;49.488;8.480;2022-07-24T00:16:02;5.22;;;3.47;;
41629;SDS011;27322;49.488;8.480;2022-07-24T00:18:28;5.63;;;3.97;;
41629;SDS011;27322;49.488;8.480;2022-07-24T00:20:54;8.05;;;3.78;;
41629;SDS011;27322;49.488;8.480;2022-07-24T00:23:19;6.97;;;3.88;;
41629;SDS011;27322;49.488;8.480;2022-07-24T00:25:47;5.60;;;3.50;;
41629;SDS011;27322;49.488;8.480;2022-07-24T00:28:13;6.82;;;3.45;;
41629;SDS011;27322;49.488;8.480;2022-07-24T00:30:39;5.75;;;3.63;;
41629;SDS011;27322;49.488;8.480;2022-07-24T00:33:05;7.82;;;4.05;;
41629;SDS011;27322;49.488;8.480;2022-07-24T00:35:31;6.22;;;3.63;;
41629;SDS011;27322;49.488;8.480;2022-07-24T00:37:57;5.90;;;3.80;;
41629;SDS011;27322;49.488;8.480;2022-07-24T00:40:23;6.72;;;3.75;;
41629;SDS011;27322;49.488;8.480;2022-07-24T00:42:50;5.82;;;3.70;;
41629;SDS011;27322;49.488;8.480;2022-07-24T00:45:16;8.07;;;3.92;;
41629;SDS011;27322;49.488;8.480;2022-07-24T00:47:42;6.13;;;3.85;;
41629;SDS011;27322;49.488;8.480;2022-07-24T00:50:08;4.90;;;3.40;;
41629;SDS011;27322;49.488;8.480;2022-07-24T00:52:34;6.25;;;4.18;;
41629;SDS011;27322;49.488;8.480;2022-07-24T00:55:00;7.28;;;4.10;;
41629;SDS011;27322;49.488;8.480;2022-07-24T00:57:27;5.90;;;3.80;;
41629;SDS011;27322;49.488;8.480;2022-07-24T00:59:52;6.43;;;3.60;;
41629;SDS011;27322;49.488;8.480;2022-07-24T01:02:18;7.07;;;3.95;;
41629;SDS011;27322;49.488;8.480;2022-07-24T01:04:44;7.65;;;3.70;;
41629;SDS011;27322;49.488;8.480;2022-07-24T01:07:09;5.25;;;3.90;;
41629;SDS011;27322;49.488;8.480;2022-07-24T01:09:36;6.35;;;3.67;;
41629;SDS011;27322;49.488;8.480;2022-07-24T01:12:03;5.88;;;3.97;;
41629;SDS011;27322;49.488;8.480;2022-07-24T01:14:30;6.20;;;3.80;;
41629;SDS011;27322;49.488;8.480;2022-07-24T01:16:57;5.93;;;3.92;;
41629;SDS011;27322;49.488;8.480;2022-07-24T01:19:23;8.27;;;3.88;;
41629;SDS011;27322;49.488;8.480;2022-07-24T01:21:50;6.88;;;4.40;;
41629;SDS011;27322;49.488;8.480;2022-07-24T01:24:18;6.32;;;4.03;;
41629;SDS011;27322;49.488;8.480;2022-07-24T01:26:44;6.05;;;4.20;;
41629;SDS011;27322;49.488;8.480;2022-07-24T01:29:11;5.72;;;3.92;;
41629;SDS011;27322;49.488;8.480;2022-07-24T01:31:37;9.20;;;4.13;;
41629;SDS011;27322;49.488;8.480;2022-07-24T01:34:03;6.43;;;4.00;;
41629;SDS011;27322;49.488;8.480;2022-07-24T01:36:29;5.45;;;4.03;;
41629;SDS011;27322;49.488;8.480;2022-07-24T01:38:55;11.40;;;4.10;;
41629;SDS011;27322;49.488;8.480;2022-07-24T01:41:21;7.00;;;4.13;;
41629;SDS011;27322;49.488;8.480;2022-07-24T01:43:47;8.20;;;4.25;;
41629;SDS011;27322;49.488;8.480;2022-07-24T01:46:13;5.85;;;3.78;;
41629;SDS011;27322;49.488;8.480;2022-07-24T01:48:40;6.43;;;4.20;;
41629;SDS011;27322;49.488;8.480;2022-07-24T01:51:07;5.40;;;3.72;;
41629;SDS011;27322;49.488;8.480;2022-07-24T01:53:33;7.82;;;4.50;;
41629;SDS011;27322;49.488;8.480;2022-07-24T01:55:58;7.88;;;4.57;;
41629;SDS011;27322;49.488;8.480;2022-07-24T01:58:24;9.40;;;4.53;;
41629;SDS011;27322;49.488;8.480;2022-07-24T02:00:50;6.57;;;4.22;;
41629;SDS011;27322;49.488;8.480;2022-07-24T02:03:16;6.53;;;3.80;;
41629;SDS011;27322;49.488;8.480;2022-07-24T02:05:42;7.68;;;4.38;;
41629;SDS011;27322;49.488;8.480;2022-07-24T02:08:08;6.82;;;4.18;;
41629;SDS011;27322;49.488;8.480;2022-07-24T02:10:34;5.78;;;3.83;;
41629;SDS011;27322;49.488;8.480;2022-07-24T02:13:00;6.75;;;4.18;;
41629;SDS011;27322;49.488;8.480;2022-07-24T02:15:26;6.75;;;4.20;;
41629;SDS011;27322;49.488;8.480;2022-07-24T02:17:54;5.78;;;4.07;;
41629;SDS011;27322;49.488;8.480;2022-07-24T02:20:21;7.95;;;4.00;;
41629;SDS011;27322;49.488;8.480;2022-07-24T02:22:47;6.15;;;3.92;;
41629;SDS011;27322;49.488;8.480;2022-07-24T02:25:13;5.30;;;3.97;;
41629;SDS011;27322;49.488;8.480;2022-07-24T02:27:39;8.30;;;4.30;;
41629;SDS011;27322;49.488;8.480;2022-07-24T02:30:05;6.25;;;3.80;;
41629;SDS011;27322;49.488;8.480;2022-07-24T02:32:33;9.02;;;4.50;;
41629;SDS011;27322;49.488;8.480;2022-07-24T02:34:59;6.70;;;4.20;;
41629;SDS011;27322;49.488;8.480;2022-07-24T02:37:25;6.72;;;4.38;;
41629;SDS011;27322;49.488;8.480;2022-07-24T02:39:51;7.03;;;4.20;;
41629;SDS011;27322;49.488;8.480;2022-07-24T02:42:17;8.05;;;4.13;;
41629;SDS011;27322;49.488;8.480;2022-07-24T02:44:42;7.78;;;4.18;;
41629;SDS011;27322;49.488;8.480;2022-07-24T02:47:08;6.38;;;4.05;;
41629;SDS011;27322;49.488;8.480;2022-07-24T02:49:34;6.05;;;4.05;;
41629;SDS011;27322;49.488;8.480;2022-07-24T02:52:01;6.63;;;4.38;;
41629;SDS011;27322;49.488;8.480;2022-07-24T02:54:27;7.50;;;4.20;;
41629;SDS011;27322;49.488;8.480;2022-07-24T02:56:53;6.80;;;4.13;;
41629;SDS011;27322;49.488;8.480;2022-07-24T02:59:19;7.70;;;4.05;;
41629;SDS011;27322;49.488;8.480;2022-07-24T03:01:44;6.43;;;4.28;;
41629;SDS011;27322;49.488;8.480;2022-07-24T03:04:10;6.43;;;4.18;;
41629;SDS011;27322;49.488;8.480;2022-07-24T03:06:36;6.47;;;4.57;;
41629;SDS011;27322;49.488;8.480;2022-07-24T03:09:02;6.13;;;4.38;;
41629;SDS011;27322;49.488;8.480;2022-07-24T03:11:28;7.00;;;4.30;;
41629;SDS011;27322;49.488;8.480;2022-07-24T03:13:54;6.20;;;4.32;;
41629;SDS011;27322;49.488;8.480;2022-07-24T03:16:20;7.05;;;4.53;;
41629;SDS011;27322;49.488;8.480;2022-07-24T03:18:45;6.35;;;4.43;;
41629;SDS011;27322;49.488;8.480;2022-07-24T03:21:13;8.10;;;4.30;;
41629;SDS011;27322;49.488;8.480;2022-07-24T03:23:39;8.75;;;4.28;;
41629;SDS011;27322;49.488;8.480;2022-07-24T03:26:05;6.28;;;4.15;;
41629;SDS011;27322;49.488;8.480;2022-07-24T03:28:31;8.55;;;4.82;;
41629;SDS011;27322;49.488;8.480;2022-07-24T03:30:57;7.95;;;4.60;;
41629;SDS011;27322;49.488;8.480;2022-07-24T03:33:23;7.30;;;4.97;;
41629;SDS011;27322;49.488;8.480;2022-07-24T03:35:49;6.72;;;4.38;;
41629;SDS011;27322;49.488;8.480;2022-07-24T03:38:14;7.72;;;4.55;;
41629;SDS011;27322;49.488;8.480;2022-07-24T03:40:40;6.38;;;4.40;;
41629;SDS011;27322;49.488;8.480;2022-07-24T03:43:06;6.53;;;4.85;;
41629;SDS011;27322;49.488;8.480;2022-07-24T03:45:31;7.80;;;4.90;;
41629;SDS011;27322;49.488;8.480;2022-07-24T03:47:57;9.65;;;5.30;;
41629;SDS011;27322;49.488;8.480;2022-07-24T03:50:23;9.25;;;4.80;;
41629;SDS011;27322;49.488;8.480;2022-07-24T03:52:49;9.40;;;5.13;;
41629;SDS011;27322;49.488;8.480;2022-07-24T03:55:15;9.05;;;4.93;;
41629;SDS011;27322;49.488;8.480;2022-07-24T03:57:41;7.45;;;4.95;;
41629;SDS011;27322;49.488;8.480;2022-07-24T04:00:07;6.93;;;4.80;;
41629;SDS011;27322;49.488;8.480;2022-07-24T04:02:34;7.25;;;4.72;;
41629;SDS011;27322;49.488;8.480;2022-07-24T04:05:00;7.18;;;5.00;;
41629;SDS011;27322;49.488;8.480;2022-07-24T04:07:25;8.65;;;5.28;;
41629;SDS011;27322;49.488;8.480;2022-07-24T04:09:51;8.40;;;4.80;;
41629;SDS011;27322;49.488;8.480;2022-07-24T04:12:17;8.13;;;4.55;;
41629;SDS011;27322;49.488;8.480;2022-07-24T04:14:43;8.07;;;4.72;;
41629;SDS011;27322;49.488;8.480;2022-07-24T04:17:08;7.03;;;4.78;;
41629;SDS011;27322;49.488;8.480;2022-07-24T04:19:34;6.82;;;5.00;;
41629;SDS011;27322;49.488;8.480;2022-07-24T04:22:00;7.20;;;4.43;;
41629;SDS011;27322;49.488;8.480;2022-07-24T04:24:26;7.28;;;4.90;;
41629;SDS011;27322;49.488;8.480;2022-07-24T04:26:52;7.15;;;4.97;;
41629;SDS011;27322;49.488;8.480;2022-07-24T04:29:17;6.97;;;4.80;;
41629;SDS011;27322;49.488;8.480;2022-07-24T04:31:43;6.93;;;4.90;;
41629;SDS011;27322;49.488;8.480;2022-07-24T04:34:10;8.35;;;4.70;;
41629;SDS011;27322;49.488;8.480;2022-07-24T04:36:36;7.60;;;4.97;;
41629;SDS011;27322;49.488;8.480;2022-07-24T04:39:01;9.57;;;5.25;;
41629;SDS011;27322;49.488;8.480;2022-07-24T04:41:28;7.35;;;4.35;;
41629;SDS011;27322;49.488;8.480;2022-07-24T04:43:53;8.00;;;4.55;;
41629;SDS011;27322;49.488;8.480;2022-07-24T04:46:19;7.13;;;4.75;;
41629;SDS011;27322;49.488;8.480;2022-07-24T04:48:45;10.65;;;4.40;;
41629;SDS011;27322;49.488;8.480;2022-07-24T04:51:10;8.68;;;4.88;;
41629;SDS011;27322;49.488;8.480;2022-07-24T04:53:36;7.38;;;4.72;;
41629;SDS011;27322;49.488;8.480;2022-07-24T04:56:02;5.97;;;4.28;;
41629;SDS011;27322;49.488;8.480;2022-07-24T04:58:28;6.78;;;4.32;;
41629;SDS011;27322;49.488;8.480;2022-07-24T05:00:53;8.30;;;4.32;;
41629;SDS011;27322;49.488;8.480;2022-07-24T05:03:20;7.88;;;4.40;;
41629;SDS011;27322;49.488;8.480;2022-07-24T05:05:45;6.30;;;4.28;;
41629;SDS011;27322;49.488;8.480;2022-07-24T05:08:11;6.35;;;4.38;;
41629;SDS011;27322;49.488;8.480;2022-07-24T05:10:37;6.55;;;4.35;;
41629;SDS011;27322;49.488;8.480;2022-07-24T05:13:03;7.03;;;4.40;;
41629;SDS011;27322;49.488;8.480;2022-07-24T05:15:29;6.72;;;4.18;;
41629;SDS011;27322;49.488;8.480;2022-07-24T05:17:55;7.05;;;4.75;;
41629;SDS011;27322;49.488;8.480;2022-07-24T05:20:20;8.45;;;4.45;;
41629;SDS011;27322;49.488;8.480;2022-07-24T05:22:46;7.18;;;4.68;;
41629;SDS011;27322;49.488;8.480;2022-07-24T05:25:12;7.20;;;3.63;;
41629;SDS011;27322;49.488;8.480;2022-07-24T05:27:38;8.82;;;4.40;;
41629;SDS011;27322;49.488;8.480;2022-07-24T05:30:04;7.88;;;4.40;;
41629;SDS011;27322;49.488;8.480;2022-07-24T05:32:30;7.70;;;4.28;;
41629;SDS011;27322;49.488;8.480;2022-07-24T05:34:56;7.95;;;4.47;;
41629;SDS011;27322;49.488;8.480;2022-07-24T05:37:22;7.22;;;4.30;;
41629;SDS011;27322;49.488;8.480;2022-07-24T05:39:47;7.40;;;4.55;;
41629;SDS011;27322;49.488;8.480;2022-07-24T05:42:13;11.93;;;5.03;;
41629;SDS011;27322;49.488;8.480;2022-07-24T05:44:38;6.72;;;4.40;;
41629;SDS011;27322;49.488;8.480;2022-07-24T05:47:04;5.82;;;4.40;;
41629;SDS011;27322;49.488;8.480;2022-07-24T05:49:30;7.00;;;4.65;;
41629;SDS011;27322;49.488;8.480;2022-07-24T05:51:56;7.13;;;4.60;;
41629;SDS011;27322;49.488;8.480;2022-07-24T05:54:22;6.80;;;4.50;;
41629;SDS011;27322;49.488;8.480;2022-07-24T05:56:47;7.78;;;4.35;;
41629;SDS011;27322;49.488;8.480;2022-07-24T05:59:13;6.13;;;4.10;;
41629;SDS011;27322;49.488;8.480;2022-07-24T06:01:39;7.22;;;4.75;;
41629;SDS011;27322;49.488;8.480;2022-07-24T06:04:05;8.57;;;4.93;;
41629;SDS011;27322;49.488;8.480;2022-07-24T06:06:30;7.10;;;4.47;;
41629;SDS011;27322;49.488;8.480;2022-07-24T06:08:56;8.82;;;4.65;;
41629;SDS011;27322;49.488;8.480;2022-07-24T06:11:22;7.15;;;4.82;;
41629;SDS011;27322;49.488;8.480;2022-07-24T06:13:48;7.45;;;4.68;;
41629;SDS011;27322;49.488;8.480;2022-07-24T06:16:14;7.82;;;4.95;;
41629;SDS011;27322;49.488;8.480;2022-07-24T06:18:40;9.75;;;5.03;;
41629;SDS011;27322;49.488;8.480;2022-07-24T06:21:06;7.25;;;4.80;;
41629;SDS011;27322;49.488;8.480;2022-07-24T06:23:32;7.40;;;4.57;;
41629;SDS011;27322;49.488;8.480;2022-07-24T06:25:58;8.13;;;4.70;;
41629;SDS011;27322;49.488;8.480;2022-07-24T06:28:24;6.18;;;4.57;;
41629;SDS011;27322;49.488;8.480;2022-07-24T06:30:50;6.80;;;4.35;;
41629;SDS011;27322;49.488;8.480;2022-07-24T06:33:15;7.68;;;4.70;;
41629;SDS011;27322;49.488;8.480;2022-07-24T06:35:41;6.40;;;4.30;;
41629;SDS011;27322;49.488;8.480;2022-07-24T06:38:07;7.95;;;5.03;;
41629;SDS011;27322;49.488;8.480;2022-07-24T06:40:34;6.93;;;4.50;;
41629;SDS011;27322;49.488;8.480;2022-07-24T06:43:01;6.40;;;4.60;;
41629;SDS011;27322;49.488;8.480;2022-07-24T06:45:27;6.95;;;4.88;;
41629;SDS011;27322;49.488;8.480;2022-07-24T06:47:56;9.20;;;5.00;;
41629;SDS011;27322;49.488;8.480;2022-07-24T06:50:21;10.43;;;4.95;;
41629;SDS011;27322;49.488;8.480;2022-07-24T06:52:47;7.95;;;4.68;;
41629;SDS011;27322;49.488;8.480;2022-07-24T06:55:13;6.55;;;4.65;;
41629;SDS011;27322;49.488;8.480;2022-07-24T06:57:39;9.70;;;4.97;;
41629;SDS011;27322;49.488;8.480;2022-07-24T07:00:08;7.57;;;4.88;;
41629;SDS011;27322;49.488;8.480;2022-07-24T07:02:34;9.13;;;5.03;;
41629;SDS011;27322;49.488;8.480;2022-07-24T07:05:00;8.38;;;4.47;;
41629;SDS011;27322;49.488;8.480;2022-07-24T07:07:26;7.35;;;4.60;;
41629;SDS011;27322;49.488;8.480;2022-07-24T07:09:51;6.57;;;4.72;;
41629;SDS011;27322;49.488;8.480;2022-07-24T07:12:17;8.23;;;4.97;;
41629;SDS011;27322;49.488;8.480;2022-07-24T07:14:42;9.43;;;4.18;;
41629;SDS011;27322;49.488;8.480;2022-07-24T07:17:08;8.50;;;4.63;;
41629;SDS011;27322;49.488;8.480;2022-07-24T07:19:34;8.65;;;4.38;;
41629;SDS011;27322;49.488;8.480;2022-07-24T07:21:59;6.88;;;4.40;;
41629;SDS011;27322;49.488;8.480;2022-07-24T07:24:25;6.95;;;4.40;;
41629;SDS011;27322;49.488;8.480;2022-07-24T07:26:51;8.45;;;5.03;;
41629;SDS011;27322;49.488;8.480;2022-07-24T07:29:17;7.97;;;4.93;;
41629;SDS011;27322;49.488;8.480;2022-07-24T07:31:42;6.65;;;4.38;;
41629;SDS011;27322;49.488;8.480;2022-07-24T07:34:08;6.45;;;4.72;;
41629;SDS011;27322;49.488;8.480;2022-07-24T07:36:34;6.60;;;4.55;;
41629;SDS011;27322;49.488;8.480;2022-07-24T07:39:00;7.03;;;4.30;;
41629;SDS011;27322;49.488;8.480;2022-07-24T07:41:26;7.15;;;4.60;;
41629;SDS011;27322;49.488;8.480;2022-07-24T07:43:51;7.45;;;4.65;;
41629;SDS011;27322;49.488;8.480;2022-07-24T07:46:17;8.52;;;4.63;;
41629;SDS011;27322;49.488;8.480;2022-07-24T07:48:43;6.90;;;4.45;;
41629;SDS011;27322;49.488;8.480;2022-07-24T07:51:09;7.82;;;4.30;;
41629;SDS011;27322;49.488;8.480;2022-07-24T07:53:35;5.63;;;4.03;;
41629;SDS011;27322;49.488;8.480;2022-07-24T07:56:01;12.95;;;9.15;;
41629;SDS011;27322;49.488;8.480;2022-07-24T07:58:27;7.10;;;4.90;;
41629;SDS011;27322;49.488;8.480;2022-07-24T08:00:53;7.68;;;4.53;;
41629;SDS011;27322;49.488;8.480;2022-07-24T08:03:19;6.57;;;4.40;;
41629;SDS011;27322;49.488;8.480;2022-07-24T08:05:45;9.57;;;4.63;;
41629;SDS011;27322;49.488;8.480;2022-07-24T08:08:10;6.15;;;4.57;;
41629;SDS011;27322;49.488;8.480;2022-07-24T08:10:36;6.10;;;4.55;;
41629;SDS011;27322;49.488;8.480;2022-07-24T08:13:02;6.32;;;4.43;;
41629;SDS011;27322;49.488;8.480;2022-07-24T08:15:28;7.20;;;4.57;;
41629;SDS011;27322;49.488;8.480;2022-07-24T08:17:57;11.20;;;4.55;;
41629;SDS011;27322;49.488;8.480;2022-07-24T08:20:23;6.72;;;4.20;;
41629;SDS011;27322;49.488;8.480;2022-07-24T08:22:51;8.50;;;5.78;;
41629;SDS011;27322;49.488;8.480;2022-07-24T08:25:17;9.57;;;5.03;;
41629;SDS011;27322;49.488;8.480;2022-07-24T08:27:43;6.45;;;4.63;;
41629;SDS011;27322;49.488;8.480;2022-07-24T08:30:09;8.52;;;4.72;;
41629;SDS011;27322;49.488;8.480;2022-07-24T08:32:35;7.13;;;4.88;;
41629;SDS011;27322;49.488;8.480;2022-07-24T08:35:03;6.97;;;4.75;;
41629;SDS011;27322;49.488;8.480;2022-07-24T08:37:29;7.80;;;5.20;;
41629;SDS011;27322;49.488;8.480;2022-07-24T08:39:55;6.53;;;4.65;;
41629;SDS011;27322;49.488;8.480;2022-07-24T08:42:21;6.97;;;4.32;;
41629;SDS011;27322;49.488;8.480;2022-07-24T08:44:47;8.27;;;4.70;;
41629;SDS011;27322;49.488;8.480;2022-07-24T08:47:14;7.38;;;5.00;;
41629;SDS011;27322;49.488;8.480;2022-07-24T08:49:40;6.70;;;4.68;;
41629;SDS011;27322;49.488;8.480;2022-07-24T08:52:08;7.75;;;4.97;;
41629;SDS011;27322;49.488;8.480;2022-07-24T08:54:35;6.57;;;4.68;;
41629;SDS011;27322;49.488;8.480;2022-07-24T08:57:02;8.15;;;5.05;;
41629;SDS011;27322;49.488;8.480;2022-07-24T08:59:28;8.27;;;5.10;;
41629;SDS011;27322;49.488;8.480;2022-07-24T09:01:54;7.45;;;5.30;;
41629;SDS011;27322;49.488;8.480;2022-07-24T09:07:03;6.90;;;4.78;;
41629;SDS011;27322;49.488;8.480;2022-07-24T09:09:31;8.50;;;5.28;;
41629;SDS011;27322;49.488;8.480;2022-07-24T09:12:07;7.55;;;4.40;;
41629;SDS011;27322;49.488;8.480;2022-07-24T09:14:44;7.65;;;5.07;;
41629;SDS011;27322;49.488;8.480;2022-07-24T09:17:14;6.93;;;5.07;;
41629;SDS011;27322;49.488;8.480;2022-07-24T09:19:45;7.82;;;5.40;;
41629;SDS011;27322;49.488;8.480;2022-07-24T09:25:16;8.25;;;4.65;;
41629;SDS011;27322;49.488;8.480;2022-07-24T09:27:53;7.47;;;5.00;;
41629;SDS011;27322;49.488;8.480;2022-07-24T09:33:16;10.00;;;5.28;;
41629;SDS011;27322;49.488;8.480;2022-07-24T09:35:50;8.18;;;5.20;;
41629;SDS011;27322;49.488;8.480;2022-07-24T09:38:18;8.10;;;5.70;;
41629;SDS011;27322;49.488;8.480;2022-07-24T09:40:46;8.43;;;5.32;;
41629;SDS011;27322;49.488;8.480;2022-07-24T09:43:16;7.50;;;5.45;;
41629;SDS011;27322;49.488;8.480;2022-07-24T09:48:38;7.35;;;5.30;;
41629;SDS011;27322;49.488;8.480;2022-07-24T09:51:09;12.00;;;6.00;;
41629;SDS011;27322;49.488;8.480;2022-07-24T09:53:37;8.50;;;5.65;;
41629;SDS011;27322;49.488;8.480;2022-07-24T09:58:33;9.07;;;5.13;;
41629;SDS011;27322;49.488;8.480;2022-07-24T10:01:01;8.25;;;5.03;;
41629;SDS011;27322;49.488;8.480;2022-07-24T10:03:29;9.13;;;5.40;;
41629;SDS011;27322;49.488;8.480;2022-07-24T10:06:06;8.65;;;6.10;;
41629;SDS011;27322;49.488;8.480;2022-07-24T10:08:34;8.35;;;5.47;;
41629;SDS011;27322;49.488;8.480;2022-07-24T10:11:01;8.38;;;5.30;;
41629;SDS011;27322;49.488;8.480;2022-07-24T10:13:28;7.15;;;5.20;;
41629;SDS011;27322;49.488;8.480;2022-07-24T10:18:28;11.15;;;5.75;;
41629;SDS011;27322;49.488;8.480;2022-07-24T10:21:18;8.63;;;6.07;;
41629;SDS011;27322;49.488;8.480;2022-07-24T10:29:07;14.73;;;6.80;;
41629;SDS011;27322;49.488;8.480;2022-07-24T10:31:36;8.10;;;6.03;;
41629;SDS011;27322;49.488;8.480;2022-07-24T10:34:03;7.95;;;6.28;;
41629;SDS011;27322;49.488;8.480;2022-07-24T10:36:36;9.23;;;6.07;;
41629;SDS011;27322;49.488;8.480;2022-07-24T10:39:34;7.78;;;6.00;;
41629;SDS011;27322;49.488;8.480;2022-07-24T10:42:08;8.00;;;5.50;;
41629;SDS011;27322;49.488;8.480;2022-07-24T10:44:33;7.93;;;6.03;;
41629;SDS011;27322;49.488;8.480;2022-07-24T10:47:00;8.13;;;6.13;;
41629;SDS011;27322;49.488;8.480;2022-07-24T10:54:37;7.20;;;5.60;;
41629;SDS011;27322;49.488;8.480;2022-07-24T10:57:04;7.30;;;5.35;;
41629;SDS011;27322;49.488;8.480;2022-07-24T10:59:32;6.97;;;5.50;;
41629;SDS011;27322;49.488;8.480;2022-07-24T11:10:53;7.20;;;5.10;;
41629;SDS011;27322;49.488;8.480;2022-07-24T11:18:35;8.88;;;5.30;;
41629;SDS011;27322;49.488;8.480;2022-07-24T11:21:05;7.03;;;5.47;;
41629;SDS011;27322;49.488;8.480;2022-07-24T11:23:31;7.70;;;5.25;;
41629;SDS011;27322;49.488;8.480;2022-07-24T11:31:45;8.07;;;5.30;;
41629;SDS011;27322;49.488;8.480;2022-07-24T11:34:12;8.05;;;5.60;;
41629;SDS011;27322;49.488;8.480;2022-07-24T11:36:45;9.32;;;5.40;;
41629;SDS011;27322;49.488;8.480;2022-07-24T11:39:13;6.00;;;4.53;;
41629;SDS011;27322;49.488;8.480;2022-07-24T11:41:46;6.03;;;4.60;;
41629;SDS011;27322;49.488;8.480;2022-07-24T11:46:53;8.80;;;5.03;;
41629;SDS011;27322;49.488;8.480;2022-07-24T11:49:22;5.97;;;4.47;;
41629;SDS011;27322;49.488;8.480;2022-07-24T11:51:48;7.80;;;4.75;;
41629;SDS011;27322;49.488;8.480;2022-07-24T11:54:25;5.80;;;4.20;;
41629;SDS011;27322;49.488;8.480;2022-07-24T11:56:52;6.38;;;4.30;;
41629;SDS011;27322;49.488;8.480;2022-07-24T11:59:23;8.63;;;4.95;;
41629;SDS011;27322;49.488;8.480;2022-07-24T12:01:49;6.50;;;4.25;;
41629;SDS011;27322;49.488;8.480;2022-07-24T12:04:22;5.82;;;3.50;;
41629;SDS011;27322;49.488;8.480;2022-07-24T12:06:47;4.78;;;3.10;;
41629;SDS011;27322;49.488;8.480;2022-07-24T12:09:14;5.72;;;3.53;;
41629;SDS011;27322;49.488;8.480;2022-07-24T12:11:39;4.97;;;3.35;;
41629;SDS011;27322;49.488;8.480;2022-07-24T12:14:06;5.97;;;3.92;;
41629;SDS011;27322;49.488;8.480;2022-07-24T12:16:39;5.45;;;3.33;;
41629;SDS011;27322;49.488;8.480;2022-07-24T12:19:12;7.05;;;4.18;;
41629;SDS011;27322;49.488;8.480;2022-07-24T12:21:39;6.45;;;4.43;;
41629;SDS011;27322;49.488;8.480;2022-07-24T12:24:06;6.20;;;4.05;;
41629;SDS011;27322;49.488;8.480;2022-07-24T12:26:32;4.97;;;3.35;;
41629;SDS011;27322;49.488;8.480;2022-07-24T12:29:10;6.07;;;3.15;;
41629;SDS011;27322;49.488;8.480;2022-07-24T12:31:36;5.07;;;3.25;;
41629;SDS011;27322;49.488;8.480;2022-07-24T12:34:02;4.32;;;2.97;;
41629;SDS011;27322;49.488;8.480;2022-07-24T12:36:29;5.88;;;3.50;;
41629;SDS011;27322;49.488;8.480;2022-07-24T12:38:55;6.05;;;3.67;;
41629;SDS011;27322;49.488;8.480;2022-07-24T12:41:22;5.45;;;3.90;;
41629;SDS011;27322;49.488;8.480;2022-07-24T12:49:03;5.13;;;3.53;;
41629;SDS011;27322;49.488;8.480;2022-07-24T12:52:17;5.13;;;3.40;;
41629;SDS011;27322;49.488;8.480;2022-07-24T12:57:00;5.60;;;3.65;;
41629;SDS011;27322;49.488;8.480;2022-07-24T13:02:05;6.55;;;3.70;;
41629;SDS011;27322;49.488;8.480;2022-07-24T13:04:42;5.80;;;4.10;;
41629;SDS011;27322;49.488;8.480;2022-07-24T13:07:09;6.60;;;4.07;;
41629;SDS011;27322;49.488;8.480;2022-07-24T13:09:35;7.47;;;4.00;;
41629;SDS011;27322;49.488;8.480;2022-07-24T13:12:02;5.32;;;3.80;;
41629;SDS011;27322;49.488;8.480;2022-07-24T13:14:27;5.78;;;3.50;;
41629;SDS011;27322;49.488;8.480;2022-07-24T13:16:54;6.15;;;4.10;;
41629;SDS011;27322;49.488;8.480;2022-07-24T13:19:26;6.75;;;4.53;;
41629;SDS011;27322;49.488;8.480;2022-07-24T13:21:52;5.80;;;3.92;;
41629;SDS011;27322;49.488;8.480;2022-07-24T13:24:17;5.85;;;4.80;;
41629;SDS011;27322;49.488;8.480;2022-07-24T13:26:43;7.90;;;4.65;;
41629;SDS011;27322;49.488;8.480;2022-07-24T13:29:10;6.93;;;4.38;;
41629;SDS011;27322;49.488;8.480;2022-07-24T13:31:36;5.85;;;4.15;;
41629;SDS011;27322;49.488;8.480;2022-07-24T13:34:02;9.13;;;4.60;;
41629;SDS011;27322;49.488;8.480;2022-07-24T13:36:28;4.63;;;3.92;;
41629;SDS011;27322;49.488;8.480;2022-07-24T13:38:54;6.18;;;3.85;;
41629;SDS011;27322;49.488;8.480;2022-07-24T13:41:20;5.70;;;4.38;;
41629;SDS011;27322;49.488;8.480;2022-07-24T13:43:46;6.75;;;4.15;;
41629;SDS011;27322;49.488;8.480;2022-07-24T13:46:13;5.65;;;4.20;;
41629;SDS011;27322;49.488;8.480;2022-07-24T13:48:39;6.53;;;4.32;;
41629;SDS011;27322;49.488;8.480;2022-07-24T13:51:05;6.00;;;4.55;;
41629;SDS011;27322;49.488;8.480;2022-07-24T13:53:31;6.88;;;4.00;;
41629;SDS011;27322;49.488;8.480;2022-07-24T13:55:57;5.55;;;4.40;;
41629;SDS011;27322;49.488;8.480;2022-07-24T13:58:22;7.63;;;3.80;;
41629;SDS011;27322;49.488;8.480;2022-07-24T14:00:48;5.80;;;4.20;;
41629;SDS011;27322;49.488;8.480;2022-07-24T14:03:14;5.57;;;4.22;;
41629;SDS011;27322;49.488;8.480;2022-07-24T14:05:40;5.43;;;4.40;;
41629;SDS011;27322;49.488;8.480;2022-07-24T14:08:07;7.15;;;4.53;;
41629;SDS011;27322;49.488;8.480;2022-07-24T14:10:33;5.45;;;4.25;;
41629;SDS011;27322;49.488;8.480;2022-07-24T14:12:59;4.82;;;3.80;;
41629;SDS011;27322;49.488;8.480;2022-07-24T14:15:24;6.82;;;3.92;;
41629;SDS011;27322;49.488;8.480;2022-07-24T14:17:51;6.45;;;4.10;;
41629;SDS011;27322;49.488;8.480;2022-07-24T14:20:17;5.20;;;3.92;;
41629;SDS011;27322;49.488;8.480;2022-07-24T14:22:43;4.53;;;3.80;;
41629;SDS011;27322;49.488;8.480;2022-07-24T14:25:09;6.00;;;3.97;;
41629;SDS011;27322;49.488;8.480;2022-07-24T14:27:35;4.97;;;4.10;;
41629;SDS011;27322;49.488;8.480;2022-07-24T14:30:01;4.72;;;3.40;;
41629;SDS011;27322;49.488;8.480;2022-07-24T14:32:28;5.10;;;3.35;;
41629;SDS011;27322;49.488;8.480;2022-07-24T14:34:53;5.40;;;3.70;;
41629;SDS011;27322;49.488;8.480;2022-07-24T14:37:19;5.00;;;3.35;;
41629;SDS011;27322;49.488;8.480;2022-07-24T14:39:45;4.53;;;3.38;;
41629;SDS011;27322;49.488;8.480;2022-07-24T14:42:11;4.47;;;3.10;;
41629;SDS011;27322;49.488;8.480;2022-07-24T14:44:36;4.28;;;2.80;;
41629;SDS011;27322;49.488;8.480;2022-07-24T14:47:02;6.22;;;2.97;;
41629;SDS011;27322;49.488;8.480;2022-07-24T14:49:29;4.32;;;2.55;;
41629;SDS011;27322;49.488;8.480;2022-07-24T14:51:56;4.00;;;2.50;;
41629;SDS011;27322;49.488;8.480;2022-07-24T14:54:22;3.40;;;2.42;;
41629;SDS011;27322;49.488;8.480;2022-07-24T14:56:48;3.63;;;2.65;;
41629;SDS011;27322;49.488;8.480;2022-07-24T14:59:13;3.10;;;2.22;;
41629;SDS011;27322;49.488;8.480;2022-07-24T15:01:39;4.25;;;2.65;;
41629;SDS011;27322;49.488;8.480;2022-07-24T15:04:05;4.22;;;2.72;;
41629;SDS011;27322;49.488;8.480;2022-07-24T15:06:31;4.65;;;3.20;;
41629;SDS011;27322;49.488;8.480;2022-07-24T15:08:57;5.97;;;3.30;;
41629;SDS011;27322;49.488;8.480;2022-07-24T15:11:23;4.90;;;3.20;;
41629;SDS011;27322;49.488;8.480;2022-07-24T15:13:50;4.10;;;3.05;;
41629;SDS011;27322;49.488;8.480;2022-07-24T15:16:16;5.07;;;3.28;;
41629;SDS011;27322;49.488;8.480;2022-07-24T15:18:42;4.57;;;3.42;;
41629;SDS011;27322;49.488;8.480;2022-07-24T15:21:08;5.53;;;3.70;;
41629;SDS011;27322;49.488;8.480;2022-07-24T15:23:33;4.80;;;3.50;;
41629;SDS011;27322;49.488;8.480;2022-07-24T15:26:00;5.78;;;3.42;;
41629;SDS011;27322;49.488;8.480;2022-07-24T15:28:25;4.20;;;3.05;;
41629;SDS011;27322;49.488;8.480;2022-07-24T15:30:52;5.07;;;3.53;;
41629;SDS011;27322;49.488;8.480;2022-07-24T15:33:18;4.43;;;3.40;;
41629;SDS011;27322;49.488;8.480;2022-07-24T15:35:44;5.35;;;3.50;;
41629;SDS011;27322;49.488;8.480;2022-07-24T15:38:09;5.53;;;3.40;;
41629;SDS011;27322;49.488;8.480;2022-07-24T15:40:35;5.80;;;4.00;;
41629;SDS011;27322;49.488;8.480;2022-07-24T15:43:01;6.65;;;4.05;;
41629;SDS011;27322;49.488;8.480;2022-07-24T15:45:27;5.35;;;3.88;;